香港 の空港の天気 - METARとTAF

香港国際空港 ( VHHH / HKG ) - 香港 赤リョウ角
飛行場実況気象(Metar)
観測時間05/21 06:00 HKT (05/20 22:00 UTC)
風向・風速東 8m/s
視程10km以上
天気現象
少しの雲 雲底高度 400m
全天の4割程度の雲 雲底高度 910m
気温25℃
湿度78%
気圧1009hPa
METARVHHH 202200Z 09015KT 9999 FEW013 SCT030 25/21 Q1009 NOSIG
過去の天気等 Google飛行場航空写真 Wunderground天気予報

過去48時間のMETAR

飛行場予報(TAF)
発表時間: 5/21 01:00 HKT (5/20 17:00 UTC)
予報対象時間: 21日2時 HKT ~ 22日8時 HKT
風向・風速東 5m/s
視程7000m
少しの雲 雲底高度 460m
21日5時 HKT ~ 21日8時 HKT に一時的に
視程3500m
天気現象しゅう雨
少しの積乱雲 雲底高度 300m
全天の4割程度の雲 雲底高度 610m
21日8時 HKT ~ 21日14時 HKT に一時的に
視程2500m
天気現象弱い雷雨 しゅう雨
少しの積乱雲 雲底高度 300m
全天の4割程度の雲 雲底高度 610m
全天の8割程度の雲 雲底高度 1220m
22日0時 HKT ~ 22日2時 HKT に一時的に
視程3500m
天気現象しゅう雨
少しの積乱雲 雲底高度 300m
全天の4割程度の雲 雲底高度 610m
TAF VHHH 201700Z 2018/2124 08010KT 7000 FEW015 TX30/2106Z TN25/2022Z TN25/2122Z
TEMPO 2021/2024 3500 SHRA FEW010CB SCT020
TEMPO 2100/2106 2500 -TSRA SHRA FEW010CB SCT020 BKN040
TEMPO 2116/2118 3500 SHRA FEW010CB SCT020